sensor_id;sensor_type;location;lat;lon;timestamp;P1;durP1;ratioP1;P2;durP2;ratioP2
77864;SDS011;67061;48.524;9.040;2023-10-13T00:01:08;9.57;;;3.47;;
77864;SDS011;67061;48.524;9.040;2023-10-13T00:03:37;7.78;;;3.72;;
77864;SDS011;67061;48.524;9.040;2023-10-13T00:06:05;8.60;;;4.25;;
77864;SDS011;67061;48.524;9.040;2023-10-13T00:08:35;9.75;;;4.43;;
77864;SDS011;67061;48.524;9.040;2023-10-13T00:11:04;7.03;;;3.70;;
77864;SDS011;67061;48.524;9.040;2023-10-13T00:13:34;8.63;;;3.90;;
77864;SDS011;67061;48.524;9.040;2023-10-13T00:16:08;7.82;;;3.42;;
77864;SDS011;67061;48.524;9.040;2023-10-13T00:18:42;7.47;;;3.83;;
77864;SDS011;67061;48.524;9.040;2023-10-13T00:21:09;8.25;;;3.40;;
77864;SDS011;67061;48.524;9.040;2023-10-13T00:23:42;10.68;;;3.83;;
77864;SDS011;67061;48.524;9.040;2023-10-13T00:26:17;10.43;;;3.80;;
77864;SDS011;67061;48.524;9.040;2023-10-13T00:28:48;7.93;;;3.17;;
77864;SDS011;67061;48.524;9.040;2023-10-13T00:31:24;6.80;;;3.33;;
77864;SDS011;67061;48.524;9.040;2023-10-13T00:33:54;8.63;;;3.47;;
77864;SDS011;67061;48.524;9.040;2023-10-13T00:36:26;6.65;;;3.50;;
77864;SDS011;67061;48.524;9.040;2023-10-13T00:38:54;7.05;;;4.10;;
77864;SDS011;67061;48.524;9.040;2023-10-13T00:41:21;9.00;;;3.75;;
77864;SDS011;67061;48.524;9.040;2023-10-13T00:44:08;8.00;;;3.83;;
77864;SDS011;67061;48.524;9.040;2023-10-13T00:46:35;9.68;;;3.97;;
77864;SDS011;67061;48.524;9.040;2023-10-13T00:49:04;7.20;;;4.07;;
77864;SDS011;67061;48.524;9.040;2023-10-13T00:51:34;9.07;;;3.55;;
77864;SDS011;67061;48.524;9.040;2023-10-13T00:54:03;6.90;;;3.58;;
77864;SDS011;67061;48.524;9.040;2023-10-13T00:59:06;6.75;;;2.97;;
77864;SDS011;67061;48.524;9.040;2023-10-13T01:01:35;6.50;;;3.67;;
77864;SDS011;67061;48.524;9.040;2023-10-13T01:04:01;7.45;;;3.85;;
77864;SDS011;67061;48.524;9.040;2023-10-13T01:06:33;9.95;;;3.72;;
77864;SDS011;67061;48.524;9.040;2023-10-13T01:09:00;5.85;;;3.10;;
77864;SDS011;67061;48.524;9.040;2023-10-13T01:11:38;6.38;;;3.60;;
77864;SDS011;67061;48.524;9.040;2023-10-13T01:16:33;6.25;;;3.45;;
77864;SDS011;67061;48.524;9.040;2023-10-13T01:19:01;6.88;;;3.95;;
77864;SDS011;67061;48.524;9.040;2023-10-13T01:21:30;7.95;;;3.20;;
77864;SDS011;67061;48.524;9.040;2023-10-13T01:24:00;6.28;;;3.50;;
77864;SDS011;67061;48.524;9.040;2023-10-13T01:26:27;8.10;;;3.30;;
77864;SDS011;67061;48.524;9.040;2023-10-13T01:28:56;5.90;;;2.97;;
77864;SDS011;67061;48.524;9.040;2023-10-13T01:31:23;5.53;;;3.03;;
77864;SDS011;67061;48.524;9.040;2023-10-13T01:33:51;5.88;;;3.25;;
77864;SDS011;67061;48.524;9.040;2023-10-13T01:36:24;8.40;;;3.78;;
77864;SDS011;67061;48.524;9.040;2023-10-13T01:38:51;10.45;;;3.75;;
77864;SDS011;67061;48.524;9.040;2023-10-13T01:41:20;8.20;;;3.85;;
77864;SDS011;67061;48.524;9.040;2023-10-13T01:43:47;7.60;;;3.55;;
77864;SDS011;67061;48.524;9.040;2023-10-13T01:46:14;9.75;;;3.30;;
77864;SDS011;67061;48.524;9.040;2023-10-13T01:48:41;5.93;;;3.63;;
77864;SDS011;67061;48.524;9.040;2023-10-13T01:51:09;9.45;;;3.92;;
77864;SDS011;67061;48.524;9.040;2023-10-13T01:53:36;7.28;;;3.75;;
77864;SDS011;67061;48.524;9.040;2023-10-13T01:56:04;6.78;;;4.30;;
77864;SDS011;67061;48.524;9.040;2023-10-13T01:58:36;7.75;;;3.67;;
77864;SDS011;67061;48.524;9.040;2023-10-13T02:01:06;7.72;;;4.15;;
77864;SDS011;67061;48.524;9.040;2023-10-13T02:03:33;6.95;;;3.63;;
77864;SDS011;67061;48.524;9.040;2023-10-13T02:06:06;8.68;;;3.95;;
77864;SDS011;67061;48.524;9.040;2023-10-13T02:08:35;6.05;;;3.08;;
77864;SDS011;67061;48.524;9.040;2023-10-13T02:11:09;7.35;;;3.65;;
77864;SDS011;67061;48.524;9.040;2023-10-13T02:13:36;6.53;;;3.22;;
77864;SDS011;67061;48.524;9.040;2023-10-13T02:16:07;7.75;;;3.80;;
77864;SDS011;67061;48.524;9.040;2023-10-13T02:18:34;6.95;;;3.85;;
77864;SDS011;67061;48.524;9.040;2023-10-13T02:21:06;8.35;;;4.07;;
77864;SDS011;67061;48.524;9.040;2023-10-13T02:23:38;6.25;;;3.13;;
77864;SDS011;67061;48.524;9.040;2023-10-13T02:26:09;7.28;;;3.28;;
77864;SDS011;67061;48.524;9.040;2023-10-13T02:28:39;8.07;;;3.80;;
77864;SDS011;67061;48.524;9.040;2023-10-13T02:31:06;8.10;;;3.47;;
77864;SDS011;67061;48.524;9.040;2023-10-13T02:33:32;5.47;;;3.38;;
77864;SDS011;67061;48.524;9.040;2023-10-13T02:36:03;6.35;;;3.85;;
77864;SDS011;67061;48.524;9.040;2023-10-13T02:41:09;7.18;;;3.38;;
77864;SDS011;67061;48.524;9.040;2023-10-13T02:43:36;10.68;;;3.70;;
77864;SDS011;67061;48.524;9.040;2023-10-13T02:46:06;6.22;;;3.20;;
77864;SDS011;67061;48.524;9.040;2023-10-13T02:48:32;6.30;;;3.13;;
77864;SDS011;67061;48.524;9.040;2023-10-13T02:51:06;10.93;;;4.13;;
77864;SDS011;67061;48.524;9.040;2023-10-13T02:53:40;6.43;;;3.60;;
77864;SDS011;67061;48.524;9.040;2023-10-13T02:56:11;7.82;;;3.45;;
77864;SDS011;67061;48.524;9.040;2023-10-13T02:58:38;8.07;;;3.70;;
77864;SDS011;67061;48.524;9.040;2023-10-13T03:01:12;9.63;;;3.75;;
77864;SDS011;67061;48.524;9.040;2023-10-13T03:03:44;7.13;;;3.42;;
77864;SDS011;67061;48.524;9.040;2023-10-13T03:06:15;6.47;;;3.45;;
77864;SDS011;67061;48.524;9.040;2023-10-13T03:08:42;6.38;;;3.40;;
77864;SDS011;67061;48.524;9.040;2023-10-13T03:11:09;6.95;;;3.88;;
77864;SDS011;67061;48.524;9.040;2023-10-13T03:13:36;6.80;;;4.18;;
77864;SDS011;67061;48.524;9.040;2023-10-13T03:16:13;7.97;;;3.47;;
77864;SDS011;67061;48.524;9.040;2023-10-13T03:18:42;6.07;;;3.25;;
77864;SDS011;67061;48.524;9.040;2023-10-13T03:21:19;6.50;;;3.75;;
77864;SDS011;67061;48.524;9.040;2023-10-13T03:23:56;5.15;;;2.88;;
77864;SDS011;67061;48.524;9.040;2023-10-13T03:26:29;6.28;;;3.58;;
77864;SDS011;67061;48.524;9.040;2023-10-13T03:29:00;7.28;;;4.43;;
77864;SDS011;67061;48.524;9.040;2023-10-13T03:31:29;7.55;;;3.47;;
77864;SDS011;67061;48.524;9.040;2023-10-13T03:34:02;7.90;;;3.47;;
77864;SDS011;67061;48.524;9.040;2023-10-13T03:36:35;6.03;;;3.15;;
77864;SDS011;67061;48.524;9.040;2023-10-13T03:39:16;8.57;;;3.75;;
77864;SDS011;67061;48.524;9.040;2023-10-13T03:41:43;6.38;;;3.35;;
77864;SDS011;67061;48.524;9.040;2023-10-13T03:44:10;9.25;;;3.65;;
77864;SDS011;67061;48.524;9.040;2023-10-13T03:46:44;8.30;;;3.75;;
77864;SDS011;67061;48.524;9.040;2023-10-13T03:49:13;8.23;;;3.10;;
77864;SDS011;67061;48.524;9.040;2023-10-13T03:51:46;6.50;;;3.25;;
77864;SDS011;67061;48.524;9.040;2023-10-13T03:54:14;7.40;;;3.65;;
77864;SDS011;67061;48.524;9.040;2023-10-13T03:56:42;5.38;;;3.10;;
77864;SDS011;67061;48.524;9.040;2023-10-13T03:59:10;6.00;;;2.97;;
77864;SDS011;67061;48.524;9.040;2023-10-13T04:01:45;9.43;;;3.42;;
77864;SDS011;67061;48.524;9.040;2023-10-13T04:04:23;6.22;;;3.45;;
77864;SDS011;67061;48.524;9.040;2023-10-13T04:07:00;6.07;;;3.22;;
77864;SDS011;67061;48.524;9.040;2023-10-13T04:09:45;7.50;;;3.53;;
77864;SDS011;67061;48.524;9.040;2023-10-13T04:12:52;5.50;;;3.13;;
77864;SDS011;67061;48.524;9.040;2023-10-13T04:15:50;7.88;;;3.25;;
77864;SDS011;67061;48.524;9.040;2023-10-13T04:19:01;6.88;;;3.28;;
77864;SDS011;67061;48.524;9.040;2023-10-13T04:24:22;8.13;;;3.28;;
77864;SDS011;67061;48.524;9.040;2023-10-13T04:27:03;6.25;;;3.50;;
77864;SDS011;67061;48.524;9.040;2023-10-13T04:29:55;7.72;;;3.35;;
77864;SDS011;67061;48.524;9.040;2023-10-13T04:32:35;7.07;;;3.33;;
77864;SDS011;67061;48.524;9.040;2023-10-13T04:35:08;6.90;;;3.50;;
77864;SDS011;67061;48.524;9.040;2023-10-13T04:37:35;7.43;;;3.80;;
77864;SDS011;67061;48.524;9.040;2023-10-13T04:40:17;7.15;;;3.22;;
77864;SDS011;67061;48.524;9.040;2023-10-13T04:42:44;6.45;;;3.33;;
77864;SDS011;67061;48.524;9.040;2023-10-13T04:45:18;5.68;;;3.25;;
77864;SDS011;67061;48.524;9.040;2023-10-13T04:48:04;7.05;;;3.15;;
77864;SDS011;67061;48.524;9.040;2023-10-13T04:50:58;6.35;;;3.55;;
77864;SDS011;67061;48.524;9.040;2023-10-13T04:53:40;8.43;;;3.47;;
77864;SDS011;67061;48.524;9.040;2023-10-13T04:56:21;6.20;;;3.33;;
77864;SDS011;67061;48.524;9.040;2023-10-13T04:59:05;7.78;;;3.13;;
77864;SDS011;67061;48.524;9.040;2023-10-13T05:02:00;7.85;;;3.55;;
77864;SDS011;67061;48.524;9.040;2023-10-13T05:05:01;7.65;;;3.63;;
77864;SDS011;67061;48.524;9.040;2023-10-13T05:07:48;10.70;;;3.42;;
77864;SDS011;67061;48.524;9.040;2023-10-13T05:10:32;6.18;;;3.08;;
77864;SDS011;67061;48.524;9.040;2023-10-13T05:13:29;8.13;;;2.88;;
77864;SDS011;67061;48.524;9.040;2023-10-13T05:16:13;7.68;;;3.20;;
77864;SDS011;67061;48.524;9.040;2023-10-13T05:18:58;7.07;;;3.28;;
77864;SDS011;67061;48.524;9.040;2023-10-13T05:21:42;8.23;;;3.38;;
77864;SDS011;67061;48.524;9.040;2023-10-13T05:24:28;7.68;;;3.00;;
77864;SDS011;67061;48.524;9.040;2023-10-13T05:27:09;7.90;;;4.25;;
77864;SDS011;67061;48.524;9.040;2023-10-13T05:29:54;8.00;;;3.42;;
77864;SDS011;67061;48.524;9.040;2023-10-13T05:32:39;8.00;;;3.40;;
77864;SDS011;67061;48.524;9.040;2023-10-13T05:35:23;7.32;;;3.75;;
77864;SDS011;67061;48.524;9.040;2023-10-13T05:38:08;7.28;;;3.20;;
77864;SDS011;67061;48.524;9.040;2023-10-13T05:40:55;8.98;;;3.40;;
77864;SDS011;67061;48.524;9.040;2023-10-13T05:43:40;8.70;;;4.13;;
77864;SDS011;67061;48.524;9.040;2023-10-13T05:46:25;7.13;;;3.40;;
77864;SDS011;67061;48.524;9.040;2023-10-13T05:49:07;10.00;;;3.75;;
77864;SDS011;67061;48.524;9.040;2023-10-13T05:51:54;7.13;;;3.80;;
77864;SDS011;67061;48.524;9.040;2023-10-13T05:54:31;7.85;;;3.63;;
77864;SDS011;67061;48.524;9.040;2023-10-13T05:57:17;11.75;;;4.05;;
77864;SDS011;67061;48.524;9.040;2023-10-13T06:00:02;6.95;;;3.53;;
77864;SDS011;67061;48.524;9.040;2023-10-13T06:02:47;8.30;;;4.03;;
77864;SDS011;67061;48.524;9.040;2023-10-13T06:05:31;9.98;;;3.65;;
77864;SDS011;67061;48.524;9.040;2023-10-13T06:08:16;8.75;;;3.78;;
77864;SDS011;67061;48.524;9.040;2023-10-13T06:11:00;7.13;;;3.55;;
77864;SDS011;67061;48.524;9.040;2023-10-13T06:13:46;9.13;;;3.78;;
77864;SDS011;67061;48.524;9.040;2023-10-13T06:16:31;9.13;;;3.60;;
77864;SDS011;67061;48.524;9.040;2023-10-13T06:19:15;11.90;;;4.35;;
77864;SDS011;67061;48.524;9.040;2023-10-13T06:22:00;10.23;;;4.30;;
77864;SDS011;67061;48.524;9.040;2023-10-13T06:24:44;13.70;;;3.90;;
77864;SDS011;67061;48.524;9.040;2023-10-13T06:27:28;11.25;;;4.07;;
77864;SDS011;67061;48.524;9.040;2023-10-13T06:30:13;14.00;;;3.85;;
77864;SDS011;67061;48.524;9.040;2023-10-13T06:32:42;10.45;;;4.28;;
77864;SDS011;67061;48.524;9.040;2023-10-13T06:35:11;14.52;;;4.25;;
77864;SDS011;67061;48.524;9.040;2023-10-13T06:37:48;9.40;;;3.70;;
77864;SDS011;67061;48.524;9.040;2023-10-13T06:40:15;9.20;;;3.88;;
77864;SDS011;67061;48.524;9.040;2023-10-13T06:42:59;7.28;;;3.65;;
77864;SDS011;67061;48.524;9.040;2023-10-13T06:45:42;7.20;;;3.75;;
77864;SDS011;67061;48.524;9.040;2023-10-13T06:48:15;8.27;;;3.95;;
77864;SDS011;67061;48.524;9.040;2023-10-13T06:50:47;9.32;;;4.10;;
77864;SDS011;67061;48.524;9.040;2023-10-13T06:53:17;9.95;;;4.50;;
77864;SDS011;67061;48.524;9.040;2023-10-13T06:55:44;9.63;;;3.60;;
77864;SDS011;67061;48.524;9.040;2023-10-13T06:58:14;7.93;;;3.95;;
77864;SDS011;67061;48.524;9.040;2023-10-13T07:00:50;10.85;;;4.07;;
77864;SDS011;67061;48.524;9.040;2023-10-13T07:03:20;10.80;;;3.63;;
77864;SDS011;67061;48.524;9.040;2023-10-13T07:05:48;7.72;;;4.07;;
77864;SDS011;67061;48.524;9.040;2023-10-13T07:08:16;6.28;;;3.80;;
77864;SDS011;67061;48.524;9.040;2023-10-13T07:10:48;7.22;;;3.85;;
77864;SDS011;67061;48.524;9.040;2023-10-13T07:13:16;6.10;;;3.25;;
77864;SDS011;67061;48.524;9.040;2023-10-13T07:15:44;9.77;;;4.30;;
77864;SDS011;67061;48.524;9.040;2023-10-13T07:18:14;12.15;;;4.15;;
77864;SDS011;67061;48.524;9.040;2023-10-13T07:20:42;8.30;;;3.58;;
77864;SDS011;67061;48.524;9.040;2023-10-13T07:23:12;7.50;;;3.63;;
77864;SDS011;67061;48.524;9.040;2023-10-13T07:25:51;7.65;;;3.95;;
77864;SDS011;67061;48.524;9.040;2023-10-13T07:28:19;9.10;;;4.28;;
77864;SDS011;67061;48.524;9.040;2023-10-13T07:30:46;11.15;;;4.25;;
77864;SDS011;67061;48.524;9.040;2023-10-13T07:33:38;9.27;;;4.25;;
77864;SDS011;67061;48.524;9.040;2023-10-13T07:36:07;6.72;;;4.10;;
77864;SDS011;67061;48.524;9.040;2023-10-13T07:38:41;9.77;;;4.00;;
77864;SDS011;67061;48.524;9.040;2023-10-13T07:41:09;8.90;;;4.13;;
77864;SDS011;67061;48.524;9.040;2023-10-13T07:43:40;10.80;;;4.22;;
77864;SDS011;67061;48.524;9.040;2023-10-13T07:46:08;8.25;;;4.32;;
77864;SDS011;67061;48.524;9.040;2023-10-13T07:48:36;8.48;;;3.75;;
77864;SDS011;67061;48.524;9.040;2023-10-13T07:51:06;7.97;;;3.90;;
77864;SDS011;67061;48.524;9.040;2023-10-13T07:53:36;8.85;;;4.20;;
77864;SDS011;67061;48.524;9.040;2023-10-13T07:56:05;11.43;;;4.47;;
77864;SDS011;67061;48.524;9.040;2023-10-13T07:58:33;10.35;;;4.35;;
77864;SDS011;67061;48.524;9.040;2023-10-13T08:01:03;11.82;;;4.20;;
77864;SDS011;67061;48.524;9.040;2023-10-13T08:03:34;8.13;;;4.38;;
77864;SDS011;67061;48.524;9.040;2023-10-13T08:06:10;8.10;;;4.20;;
77864;SDS011;67061;48.524;9.040;2023-10-13T08:08:46;8.48;;;3.85;;
77864;SDS011;67061;48.524;9.040;2023-10-13T08:11:18;7.07;;;4.13;;
77864;SDS011;67061;48.524;9.040;2023-10-13T08:13:56;12.00;;;4.40;;
77864;SDS011;67061;48.524;9.040;2023-10-13T08:16:25;9.93;;;4.43;;
77864;SDS011;67061;48.524;9.040;2023-10-13T08:19:10;7.63;;;3.80;;
77864;SDS011;67061;48.524;9.040;2023-10-13T08:21:42;8.55;;;3.28;;
77864;SDS011;67061;48.524;9.040;2023-10-13T08:24:15;8.52;;;4.13;;
77864;SDS011;67061;48.524;9.040;2023-10-13T08:26:50;8.88;;;3.63;;
77864;SDS011;67061;48.524;9.040;2023-10-13T08:29:23;11.52;;;4.03;;
77864;SDS011;67061;48.524;9.040;2023-10-13T08:32:07;7.80;;;3.40;;
77864;SDS011;67061;48.524;9.040;2023-10-13T08:34:46;9.48;;;4.47;;
77864;SDS011;67061;48.524;9.040;2023-10-13T08:37:36;7.80;;;3.63;;
77864;SDS011;67061;48.524;9.040;2023-10-13T08:40:22;8.77;;;3.38;;
77864;SDS011;67061;48.524;9.040;2023-10-13T08:43:03;11.50;;;3.83;;
77864;SDS011;67061;48.524;9.040;2023-10-13T08:45:37;9.43;;;3.85;;
77864;SDS011;67061;48.524;9.040;2023-10-13T08:48:23;8.48;;;3.60;;
77864;SDS011;67061;48.524;9.040;2023-10-13T08:50:57;6.47;;;2.90;;
77864;SDS011;67061;48.524;9.040;2023-10-13T08:53:36;7.40;;;3.40;;
77864;SDS011;67061;48.524;9.040;2023-10-13T08:56:17;6.38;;;2.88;;
77864;SDS011;67061;48.524;9.040;2023-10-13T08:58:44;11.10;;;4.18;;
77864;SDS011;67061;48.524;9.040;2023-10-13T09:01:29;9.25;;;3.13;;
77864;SDS011;67061;48.524;9.040;2023-10-13T09:04:02;18.75;;;4.03;;
77864;SDS011;67061;48.524;9.040;2023-10-13T09:06:48;16.42;;;3.13;;
77864;SDS011;67061;48.524;9.040;2023-10-13T09:09:31;11.50;;;2.83;;
77864;SDS011;67061;48.524;9.040;2023-10-13T09:12:10;8.20;;;2.45;;
77864;SDS011;67061;48.524;9.040;2023-10-13T09:14:36;10.98;;;2.38;;
77864;SDS011;67061;48.524;9.040;2023-10-13T09:17:08;11.95;;;3.30;;
77864;SDS011;67061;48.524;9.040;2023-10-13T09:19:44;5.93;;;2.40;;
77864;SDS011;67061;48.524;9.040;2023-10-13T09:22:24;11.50;;;3.58;;
77864;SDS011;67061;48.524;9.040;2023-10-13T09:24:55;6.68;;;3.22;;
77864;SDS011;67061;48.524;9.040;2023-10-13T09:27:25;11.13;;;3.28;;
77864;SDS011;67061;48.524;9.040;2023-10-13T09:29:58;12.98;;;3.15;;
77864;SDS011;67061;48.524;9.040;2023-10-13T09:32:35;7.28;;;3.50;;
77864;SDS011;67061;48.524;9.040;2023-10-13T09:35:11;7.60;;;2.22;;
77864;SDS011;67061;48.524;9.040;2023-10-13T09:37:44;9.50;;;2.30;;
77864;SDS011;67061;48.524;9.040;2023-10-13T09:40:13;7.45;;;1.67;;
77864;SDS011;67061;48.524;9.040;2023-10-13T09:42:59;6.90;;;1.98;;
77864;SDS011;67061;48.524;9.040;2023-10-13T09:45:33;10.93;;;1.90;;
77864;SDS011;67061;48.524;9.040;2023-10-13T09:48:04;8.80;;;2.17;;
77864;SDS011;67061;48.524;9.040;2023-10-13T09:50:41;7.97;;;2.10;;
77864;SDS011;67061;48.524;9.040;2023-10-13T09:53:10;4.90;;;2.03;;
77864;SDS011;67061;48.524;9.040;2023-10-13T09:55:41;7.22;;;2.40;;
77864;SDS011;67061;48.524;9.040;2023-10-13T09:58:11;6.13;;;1.88;;
77864;SDS011;67061;48.524;9.040;2023-10-13T10:00:43;8.63;;;2.30;;
77864;SDS011;67061;48.524;9.040;2023-10-13T10:03:15;12.13;;;3.17;;
77864;SDS011;67061;48.524;9.040;2023-10-13T10:05:55;7.60;;;2.22;;
77864;SDS011;67061;48.524;9.040;2023-10-13T10:08:28;6.55;;;1.83;;
77864;SDS011;67061;48.524;9.040;2023-10-13T10:11:15;4.47;;;1.77;;
77864;SDS011;67061;48.524;9.040;2023-10-13T10:16:37;4.65;;;1.50;;
77864;SDS011;67061;48.524;9.040;2023-10-13T10:19:11;4.38;;;1.85;;
77864;SDS011;67061;48.524;9.040;2023-10-13T10:21:38;5.68;;;1.67;;
77864;SDS011;67061;48.524;9.040;2023-10-13T10:24:15;7.65;;;2.13;;
77864;SDS011;67061;48.524;9.040;2023-10-13T10:26:56;6.90;;;1.60;;
77864;SDS011;67061;48.524;9.040;2023-10-13T10:29:23;7.72;;;1.80;;
77864;SDS011;67061;48.524;9.040;2023-10-13T10:31:50;5.93;;;1.75;;
77864;SDS011;67061;48.524;9.040;2023-10-13T10:34:17;4.30;;;1.63;;
77864;SDS011;67061;48.524;9.040;2023-10-13T10:36:48;5.75;;;2.00;;
77864;SDS011;67061;48.524;9.040;2023-10-13T10:39:20;6.68;;;1.63;;
77864;SDS011;67061;48.524;9.040;2023-10-13T10:42:09;6.88;;;1.92;;
77864;SDS011;67061;48.524;9.040;2023-10-13T10:44:40;9.30;;;2.15;;
77864;SDS011;67061;48.524;9.040;2023-10-13T10:47:09;5.30;;;1.77;;
77864;SDS011;67061;48.524;9.040;2023-10-13T10:49:37;8.27;;;2.05;;
77864;SDS011;67061;48.524;9.040;2023-10-13T10:52:06;6.55;;;1.80;;
77864;SDS011;67061;48.524;9.040;2023-10-13T10:54:43;6.15;;;1.98;;
77864;SDS011;67061;48.524;9.040;2023-10-13T10:57:18;5.57;;;1.90;;
77864;SDS011;67061;48.524;9.040;2023-10-13T10:59:45;7.90;;;2.05;;
77864;SDS011;67061;48.524;9.040;2023-10-13T11:02:12;6.43;;;1.88;;
77864;SDS011;67061;48.524;9.040;2023-10-13T11:04:52;8.00;;;2.22;;
77864;SDS011;67061;48.524;9.040;2023-10-13T11:07:21;5.68;;;2.00;;
77864;SDS011;67061;48.524;9.040;2023-10-13T11:09:48;7.78;;;2.25;;
77864;SDS011;67061;48.524;9.040;2023-10-13T11:12:19;6.28;;;1.75;;
77864;SDS011;67061;48.524;9.040;2023-10-13T11:15:01;4.93;;;2.00;;
77864;SDS011;67061;48.524;9.040;2023-10-13T11:17:37;7.07;;;1.98;;
77864;SDS011;67061;48.524;9.040;2023-10-13T11:20:08;6.32;;;1.83;;
77864;SDS011;67061;48.524;9.040;2023-10-13T11:22:45;5.65;;;2.30;;
77864;SDS011;67061;48.524;9.040;2023-10-13T11:25:19;4.65;;;2.08;;
77864;SDS011;67061;48.524;9.040;2023-10-13T11:27:56;5.88;;;2.05;;
77864;SDS011;67061;48.524;9.040;2023-10-13T11:30:25;4.00;;;1.52;;
77864;SDS011;67061;48.524;9.040;2023-10-13T11:32:56;6.70;;;2.10;;
77864;SDS011;67061;48.524;9.040;2023-10-13T11:35:24;5.68;;;2.08;;
77864;SDS011;67061;48.524;9.040;2023-10-13T11:37:54;5.40;;;1.85;;
77864;SDS011;67061;48.524;9.040;2023-10-13T11:40:28;7.05;;;1.88;;
77864;SDS011;67061;48.524;9.040;2023-10-13T11:45:40;6.15;;;2.22;;
77864;SDS011;67061;48.524;9.040;2023-10-13T11:48:20;6.57;;;2.28;;
77864;SDS011;67061;48.524;9.040;2023-10-13T11:51:00;7.90;;;1.92;;
77864;SDS011;67061;48.524;9.040;2023-10-13T11:53:27;6.53;;;1.98;;
77864;SDS011;67061;48.524;9.040;2023-10-13T11:55:54;6.22;;;2.20;;
77864;SDS011;67061;48.524;9.040;2023-10-13T11:58:23;5.60;;;2.13;;
77864;SDS011;67061;48.524;9.040;2023-10-13T12:00:50;4.50;;;1.63;;
77864;SDS011;67061;48.524;9.040;2023-10-13T12:03:19;6.20;;;1.98;;
77864;SDS011;67061;48.524;9.040;2023-10-13T12:06:03;10.88;;;2.30;;
77864;SDS011;67061;48.524;9.040;2023-10-13T12:08:47;5.32;;;1.98;;
77864;SDS011;67061;48.524;9.040;2023-10-13T12:11:17;5.93;;;2.08;;
77864;SDS011;67061;48.524;9.040;2023-10-13T12:13:58;6.28;;;2.42;;
77864;SDS011;67061;48.524;9.040;2023-10-13T12:16:36;6.43;;;2.25;;
77864;SDS011;67061;48.524;9.040;2023-10-13T12:19:03;5.85;;;1.92;;
77864;SDS011;67061;48.524;9.040;2023-10-13T12:21:35;6.88;;;2.25;;
77864;SDS011;67061;48.524;9.040;2023-10-13T12:29:08;4.68;;;2.05;;
77864;SDS011;67061;48.524;9.040;2023-10-13T12:31:47;4.57;;;1.98;;
77864;SDS011;67061;48.524;9.040;2023-10-13T12:34:26;6.57;;;2.15;;
77864;SDS011;67061;48.524;9.040;2023-10-13T12:37:11;8.40;;;2.13;;
77864;SDS011;67061;48.524;9.040;2023-10-13T12:40:03;6.22;;;2.20;;
77864;SDS011;67061;48.524;9.040;2023-10-13T12:45:42;5.60;;;2.10;;
77864;SDS011;67061;48.524;9.040;2023-10-13T12:48:27;7.90;;;2.33;;
77864;SDS011;67061;48.524;9.040;2023-10-13T12:51:12;7.07;;;1.77;;
77864;SDS011;67061;48.524;9.040;2023-10-13T12:53:46;6.40;;;1.98;;
77864;SDS011;67061;48.524;9.040;2023-10-13T12:56:13;6.43;;;2.47;;
77864;SDS011;67061;48.524;9.040;2023-10-13T12:58:41;5.00;;;2.00;;
77864;SDS011;67061;48.524;9.040;2023-10-13T13:01:18;5.28;;;2.60;;
77864;SDS011;67061;48.524;9.040;2023-10-13T13:03:45;3.75;;;1.95;;
77864;SDS011;67061;48.524;9.040;2023-10-13T13:06:16;4.85;;;1.73;;
77864;SDS011;67061;48.524;9.040;2023-10-13T13:08:50;8.07;;;2.08;;
77864;SDS011;67061;48.524;9.040;2023-10-13T13:11:17;6.70;;;2.22;;
77864;SDS011;67061;48.524;9.040;2023-10-13T13:13:44;9.45;;;2.50;;
77864;SDS011;67061;48.524;9.040;2023-10-13T13:16:11;3.97;;;2.08;;
77864;SDS011;67061;48.524;9.040;2023-10-13T13:18:39;4.47;;;1.92;;
77864;SDS011;67061;48.524;9.040;2023-10-13T13:21:08;3.83;;;2.05;;
77864;SDS011;67061;48.524;9.040;2023-10-13T13:23:37;6.00;;;2.10;;
77864;SDS011;67061;48.524;9.040;2023-10-13T13:26:05;5.47;;;2.20;;
77864;SDS011;67061;48.524;9.040;2023-10-13T13:28:40;6.60;;;1.98;;
77864;SDS011;67061;48.524;9.040;2023-10-13T13:31:07;6.65;;;1.75;;
77864;SDS011;67061;48.524;9.040;2023-10-13T13:33:37;4.65;;;2.00;;
77864;SDS011;67061;48.524;9.040;2023-10-13T13:36:08;5.18;;;2.17;;
77864;SDS011;67061;48.524;9.040;2023-10-13T13:38:38;7.22;;;2.00;;
77864;SDS011;67061;48.524;9.040;2023-10-13T13:41:08;6.40;;;2.28;;
77864;SDS011;67061;48.524;9.040;2023-10-13T13:43:41;6.05;;;1.67;;
77864;SDS011;67061;48.524;9.040;2023-10-13T13:46:20;7.78;;;2.20;;
77864;SDS011;67061;48.524;9.040;2023-10-13T13:48:51;5.35;;;1.90;;
77864;SDS011;67061;48.524;9.040;2023-10-13T13:51:23;8.18;;;1.83;;
77864;SDS011;67061;48.524;9.040;2023-10-13T13:53:53;8.55;;;2.30;;
77864;SDS011;67061;48.524;9.040;2023-10-13T13:56:20;5.88;;;1.73;;
77864;SDS011;67061;48.524;9.040;2023-10-13T13:58:50;6.57;;;1.90;;
77864;SDS011;67061;48.524;9.040;2023-10-13T14:01:19;6.20;;;1.95;;
77864;SDS011;67061;48.524;9.040;2023-10-13T14:03:47;6.55;;;1.77;;
77864;SDS011;67061;48.524;9.040;2023-10-13T14:06:18;5.55;;;1.73;;
77864;SDS011;67061;48.524;9.040;2023-10-13T14:08:48;8.10;;;1.92;;
77864;SDS011;67061;48.524;9.040;2023-10-13T14:11:16;5.70;;;1.48;;
77864;SDS011;67061;48.524;9.040;2023-10-13T14:14:08;8.18;;;1.60;;
77864;SDS011;67061;48.524;9.040;2023-10-13T14:16:37;3.83;;;1.52;;
77864;SDS011;67061;48.524;9.040;2023-10-13T14:19:09;7.00;;;1.88;;
77864;SDS011;67061;48.524;9.040;2023-10-13T14:21:38;8.23;;;1.98;;
77864;SDS011;67061;48.524;9.040;2023-10-13T14:24:05;5.63;;;1.65;;
77864;SDS011;67061;48.524;9.040;2023-10-13T14:26:38;7.28;;;2.03;;
77864;SDS011;67061;48.524;9.040;2023-10-13T14:29:08;3.55;;;1.35;;
77864;SDS011;67061;48.524;9.040;2023-10-13T14:31:39;5.22;;;1.42;;
77864;SDS011;67061;48.524;9.040;2023-10-13T14:36:34;7.72;;;1.70;;
77864;SDS011;67061;48.524;9.040;2023-10-13T14:39:04;4.32;;;1.60;;
77864;SDS011;67061;48.524;9.040;2023-10-13T14:41:34;5.20;;;1.40;;
77864;SDS011;67061;48.524;9.040;2023-10-13T14:44:02;3.67;;;1.40;;
77864;SDS011;67061;48.524;9.040;2023-10-13T14:46:31;5.03;;;1.20;;
77864;SDS011;67061;48.524;9.040;2023-10-13T14:49:00;8.57;;;1.80;;
77864;SDS011;67061;48.524;9.040;2023-10-13T14:51:28;8.73;;;1.55;;
77864;SDS011;67061;48.524;9.040;2023-10-13T14:53:56;5.00;;;2.10;;
77864;SDS011;67061;48.524;9.040;2023-10-13T14:56:26;5.20;;;1.10;;
77864;SDS011;67061;48.524;9.040;2023-10-13T14:58:53;5.20;;;1.23;;
77864;SDS011;67061;48.524;9.040;2023-10-13T15:01:20;6.22;;;1.50;;
77864;SDS011;67061;48.524;9.040;2023-10-13T15:03:50;6.45;;;2.03;;
77864;SDS011;67061;48.524;9.040;2023-10-13T15:06:20;4.97;;;1.13;;
77864;SDS011;67061;48.524;9.040;2023-10-13T15:08:51;8.32;;;1.88;;
77864;SDS011;67061;48.524;9.040;2023-10-13T15:11:20;9.75;;;1.42;;
77864;SDS011;67061;48.524;9.040;2023-10-13T15:13:53;4.00;;;1.48;;
77864;SDS011;67061;48.524;9.040;2023-10-13T15:16:21;5.18;;;1.33;;
77864;SDS011;67061;48.524;9.040;2023-10-13T15:18:49;5.22;;;1.30;;
77864;SDS011;67061;48.524;9.040;2023-10-13T15:21:20;3.35;;;1.10;;
77864;SDS011;67061;48.524;9.040;2023-10-13T15:23:48;3.72;;;1.27;;
77864;SDS011;67061;48.524;9.040;2023-10-13T15:26:16;12.25;;;1.58;;
77864;SDS011;67061;48.524;9.040;2023-10-13T15:28:43;5.53;;;1.55;;
77864;SDS011;67061;48.524;9.040;2023-10-13T15:31:16;7.20;;;1.70;;
77864;SDS011;67061;48.524;9.040;2023-10-13T15:33:51;6.38;;;1.50;;
77864;SDS011;67061;48.524;9.040;2023-10-13T15:36:21;7.50;;;1.92;;
77864;SDS011;67061;48.524;9.040;2023-10-13T15:38:49;9.30;;;1.70;;
77864;SDS011;67061;48.524;9.040;2023-10-13T15:41:20;9.75;;;1.48;;
77864;SDS011;67061;48.524;9.040;2023-10-13T15:43:48;8.05;;;1.63;;
77864;SDS011;67061;48.524;9.040;2023-10-13T15:46:18;5.15;;;1.40;;
77864;SDS011;67061;48.524;9.040;2023-10-13T15:48:47;6.60;;;1.70;;
77864;SDS011;67061;48.524;9.040;2023-10-13T15:51:14;7.03;;;1.65;;